createdAt,value
2019-04-23T00:01:23.539Z,13.90
2019-04-23T00:03:49.967Z,14.00
2019-04-23T00:08:58.093Z,13.90
2019-04-23T00:11:31.296Z,13.90
2019-04-23T00:14:02.795Z,14.00
2019-04-23T00:16:30.215Z,13.90
2019-04-23T00:19:08.307Z,13.90
2019-04-23T00:22:02.186Z,13.90
2019-04-23T00:29:53.412Z,13.50
2019-04-23T00:32:23.437Z,13.40
2019-04-23T00:34:54.643Z,13.30
2019-04-23T00:39:52.324Z,13.20
2019-04-23T00:42:41.674Z,13.10
2019-04-23T00:44:56.287Z,13.10
2019-04-23T00:47:32.927Z,13.10
2019-04-23T00:50:06.431Z,13.10
2019-04-23T00:52:32.140Z,13.10
2019-04-23T00:57:35.872Z,13.20
2019-04-23T01:02:49.215Z,13.20
2019-04-23T01:05:18.396Z,13.10
2019-04-23T01:13:03.128Z,13.00
2019-04-23T01:15:32.871Z,13.00
2019-04-23T01:18:08.845Z,13.00
2019-04-23T01:20:36.833Z,12.90
2019-04-23T01:22:48.851Z,12.90
2019-04-23T01:25:36.467Z,12.90
2019-04-23T01:28:26.585Z,12.80
2019-04-23T01:33:39.396Z,12.70
2019-04-23T01:38:38.938Z,12.70
2019-04-23T01:41:13.273Z,12.60
2019-04-23T01:43:42.819Z,12.60
2019-04-23T01:46:16.402Z,12.60
2019-04-23T01:48:47.128Z,12.60
2019-04-23T01:51:20.119Z,12.60
2019-04-23T01:56:24.624Z,12.60
2019-04-23T01:58:53.467Z,12.70
2019-04-23T02:01:25.818Z,12.70
2019-04-23T02:04:03.524Z,12.60
2019-04-23T02:06:25.876Z,12.50
2019-04-23T02:09:00.443Z,12.40
2019-04-23T02:11:37.733Z,12.30
2019-04-23T02:14:05.368Z,12.20
2019-04-23T02:16:40.348Z,12.10
2019-04-23T02:19:11.347Z,12.10
2019-04-23T02:21:39.848Z,12.00
2019-04-23T02:24:12.456Z,11.80
2019-04-23T02:29:23.617Z,11.60
2019-04-23T02:34:36.018Z,11.40
2019-04-23T02:36:57.796Z,11.30
2019-04-23T02:39:32.824Z,11.30
2019-04-23T02:42:04.847Z,11.20
2019-04-23T02:44:24.195Z,11.20
2019-04-23T02:52:11.197Z,11.10
2019-04-23T02:54:48.340Z,11.00
2019-04-23T02:57:09.383Z,10.90
2019-04-23T03:05:08.265Z,10.90
2019-04-23T03:10:00.535Z,10.80
2019-04-23T03:12:37.786Z,10.90
2019-04-23T03:15:21.842Z,10.80
2019-04-23T03:21:10.182Z,11.00
2019-04-23T03:23:34.895Z,10.90
2019-04-23T03:26:08.941Z,10.90
2019-04-23T03:36:17.237Z,10.70
2019-04-23T03:41:25.797Z,10.60
2019-04-23T03:46:29.520Z,10.50
2019-04-23T03:51:38.240Z,10.50
2019-04-23T03:54:21.299Z,10.40
2019-04-23T03:56:44.565Z,10.30
2019-04-23T03:59:12.264Z,10.30
2019-04-23T04:01:46.386Z,10.30
2019-04-23T04:09:43.330Z,10.20
2019-04-23T04:11:54.978Z,10.20
2019-04-23T04:19:41.792Z,10.20
2019-04-23T04:24:41.727Z,10.20
2019-04-23T04:29:54.895Z,10.20
2019-04-23T04:32:09.868Z,10.20
2019-04-23T04:37:40.526Z,10.20
2019-04-23T04:42:25.328Z,10.30
2019-04-23T04:45:07.458Z,10.30
2019-04-23T04:47:36.290Z,10.30
2019-04-23T04:52:42.003Z,10.30
2019-04-23T04:55:05.368Z,10.30
2019-04-23T04:57:39.933Z,10.30
2019-04-23T05:00:13.345Z,10.30
2019-04-23T05:03:03.666Z,10.30
2019-04-23T05:05:47.751Z,10.40
2019-04-23T05:10:29.909Z,10.60
2019-04-23T05:12:59.855Z,10.70
2019-04-23T05:15:25.527Z,10.90
2019-04-23T05:18:19.593Z,11.10
2019-04-23T05:20:48.298Z,11.30
2019-04-23T05:26:08.483Z,11.50
2019-04-23T05:28:23.076Z,11.60
2019-04-23T05:33:33.703Z,11.90
2019-04-23T05:36:13.086Z,11.90
2019-04-23T05:38:43.302Z,12.00
2019-04-23T05:41:10.118Z,12.10
2019-04-23T05:43:40.945Z,12.20
2019-04-23T05:46:14.251Z,12.30
2019-04-23T05:48:37.379Z,12.40
2019-04-23T05:51:23.194Z,12.50
2019-04-23T05:53:51.273Z,12.70
2019-04-23T05:56:21.323Z,12.70
2019-04-23T05:58:58.123Z,12.80
2019-04-23T06:01:54.212Z,12.90
2019-04-23T06:04:26.049Z,13.00
2019-04-23T06:14:39.169Z,13.40
2019-04-23T06:17:10.626Z,13.50
2019-04-23T06:19:42.535Z,13.60
2019-04-23T06:24:45.203Z,13.70
2019-04-23T06:27:26.009Z,13.90
2019-04-23T06:32:25.968Z,14.20
2019-04-23T06:34:56.685Z,14.30
2019-04-23T06:37:49.599Z,14.50
2019-04-23T06:40:12.218Z,14.70
2019-04-23T06:42:52.142Z,14.80
2019-04-23T06:45:30.784Z,14.80
2019-04-23T06:48:02.218Z,14.90
2019-04-23T06:50:37.041Z,15.00
2019-04-23T06:53:00.565Z,15.20
2019-04-23T06:55:44.645Z,15.30
2019-04-23T06:58:18.744Z,15.20
2019-04-23T07:00:51.262Z,15.40
2019-04-23T07:03:31.494Z,15.40
2019-04-23T07:11:23.549Z,15.80
2019-04-23T07:13:54.757Z,15.90
2019-04-23T07:16:17.902Z,15.80
2019-04-23T07:19:12.489Z,15.80
2019-04-23T07:21:22.428Z,16.00
2019-04-23T07:26:36.057Z,16.00
2019-04-23T07:31:41.042Z,15.90
2019-04-23T07:34:26.471Z,16.00
2019-04-23T07:36:52.052Z,16.10
2019-04-23T07:39:29.429Z,16.30
2019-04-23T07:42:24.829Z,16.50
2019-04-23T07:45:03.622Z,16.60
2019-04-23T07:50:47.689Z,16.80
2019-04-23T07:55:56.841Z,16.90
2019-04-23T07:58:30.373Z,17.20
2019-04-23T08:01:01.922Z,17.50
2019-04-23T08:03:51.179Z,17.70
2019-04-23T08:06:01.012Z,17.70
2019-04-23T08:08:39.300Z,17.80
2019-04-23T08:11:30.442Z,17.70
2019-04-23T08:13:47.329Z,17.80
2019-04-23T08:21:30.675Z,18.30
2019-04-23T08:24:27.522Z,18.50
2019-04-23T08:27:02.717Z,18.40
2019-04-23T08:29:36.361Z,18.60
2019-04-23T08:32:13.979Z,18.70
2019-04-23T08:39:47.042Z,19.10
2019-04-23T08:42:46.235Z,19.20
2019-04-23T08:48:04.114Z,19.20
2019-04-23T08:50:32.616Z,19.30
2019-04-23T08:53:21.475Z,19.20
2019-04-23T08:55:46.431Z,19.20
2019-04-23T08:58:14.413Z,19.30
2019-04-23T09:05:53.114Z,19.50
2019-04-23T09:08:19.281Z,19.60
2019-04-23T09:16:02.031Z,19.20
2019-04-23T09:18:32.766Z,19.10
2019-04-23T09:21:07.428Z,19.30
2019-04-23T09:26:27.629Z,19.80
2019-04-23T09:32:07.576Z,20.10
2019-04-23T09:34:55.520Z,20.40
2019-04-23T09:40:31.888Z,20.80
2019-04-23T09:45:51.534Z,21.10
2019-04-23T09:48:18.265Z,21.30
2019-04-23T09:50:57.146Z,21.40
2019-04-23T09:53:27.826Z,21.40
2019-04-23T09:55:53.097Z,21.60
2019-04-23T09:58:28.833Z,22.20
2019-04-23T10:01:26.010Z,23.20
2019-04-23T10:03:45.099Z,24.40
2019-04-23T10:06:10.355Z,25.80
2019-04-23T10:08:43.002Z,26.60
2019-04-23T10:11:11.880Z,27.70
2019-04-23T10:13:45.363Z,28.10
2019-04-23T10:16:21.366Z,28.80
2019-04-23T10:18:53.288Z,29.00
2019-04-23T10:21:23.812Z,29.00
2019-04-23T10:23:55.070Z,28.80
2019-04-23T10:26:28.094Z,28.70
2019-04-23T10:29:05.542Z,29.40
2019-04-23T10:31:39.875Z,29.10
2019-04-23T10:34:42.982Z,28.70
2019-04-23T10:37:05.182Z,28.20
2019-04-23T10:39:39.075Z,27.60
2019-04-23T10:42:09.857Z,27.10
2019-04-23T10:45:14.754Z,26.50
2019-04-23T10:48:40.254Z,25.80
2019-04-23T10:51:18.631Z,25.40
2019-04-23T10:53:56.952Z,25.30
2019-04-23T10:56:40.101Z,25.50
2019-04-23T10:59:04.991Z,25.90
2019-04-23T11:04:34.212Z,26.00
2019-04-23T11:06:47.436Z,26.10
2019-04-23T11:09:38.083Z,26.10
2019-04-23T11:12:02.099Z,26.50
2019-04-23T11:14:33.851Z,27.30
2019-04-23T11:19:43.743Z,26.60
2019-04-23T11:22:20.735Z,26.70
2019-04-23T11:27:09.999Z,26.10
2019-04-23T11:29:39.036Z,26.00
2019-04-23T11:32:19.931Z,25.10
2019-04-23T11:37:12.898Z,24.10
2019-04-23T11:42:29.685Z,23.70
2019-04-23T11:47:32.749Z,23.90
2019-04-23T11:49:53.578Z,24.00
2019-04-23T11:52:45.070Z,24.40
2019-04-23T11:54:53.902Z,24.30
2019-04-23T12:02:54.248Z,24.90
2019-04-23T12:08:17.262Z,25.70
2019-04-23T12:11:41.666Z,26.20
2019-04-23T12:14:09.599Z,26.70
2019-04-23T12:16:43.521Z,26.80
2019-04-23T12:19:35.113Z,27.20
2019-04-23T12:21:43.728Z,27.60
2019-04-23T12:24:28.750Z,28.10
2019-04-23T12:26:49.264Z,28.20
2019-04-23T12:29:31.928Z,28.50
2019-04-23T12:32:24.833Z,29.20
2019-04-23T12:34:55.679Z,29.80
2019-04-23T12:37:26.690Z,30.10
2019-04-23T12:39:49.552Z,30.40
2019-04-23T12:42:43.654Z,31.10
2019-04-23T12:45:05.156Z,31.50
2019-04-23T12:47:44.916Z,31.50
2019-04-23T12:50:29.708Z,31.10
2019-04-23T12:52:40.669Z,30.90
2019-04-23T12:55:13.526Z,30.70
2019-04-23T12:57:46.787Z,30.60
2019-04-23T13:00:23.215Z,30.00
2019-04-23T13:03:06.138Z,29.30
2019-04-23T13:05:27.102Z,28.60
2019-04-23T13:08:00.529Z,28.10
2019-04-23T13:10:45.472Z,28.10
2019-04-23T13:15:34.301Z,27.10
2019-04-23T13:18:09.448Z,27.00
2019-04-23T13:20:36.598Z,26.60
2019-04-23T13:23:34.608Z,26.90
2019-04-23T13:28:35.171Z,26.20
2019-04-23T13:31:08.558Z,25.90
2019-04-23T13:38:41.747Z,25.50
2019-04-23T13:43:43.740Z,25.40
2019-04-23T13:46:24.418Z,25.50
2019-04-23T13:48:47.992Z,26.20
2019-04-23T13:51:26.254Z,26.40
2019-04-23T13:53:57.352Z,27.30
2019-04-23T13:59:31.398Z,27.30
2019-04-23T14:01:54.745Z,26.90
2019-04-23T14:04:38.990Z,27.30
2019-04-23T14:06:55.477Z,28.30
2019-04-23T14:09:37.945Z,29.00
2019-04-23T14:11:58.171Z,29.70
2019-04-23T14:19:45.650Z,28.70
2019-04-23T14:22:43.432Z,28.70
2019-04-23T14:25:04.789Z,28.60
2019-04-23T14:27:26.789Z,28.60
2019-04-23T14:30:17.846Z,28.40
2019-04-23T14:35:16.632Z,27.80
2019-04-23T14:37:58.117Z,27.60
2019-04-23T14:40:22.293Z,27.80
2019-04-23T14:43:00.086Z,28.70
2019-04-23T14:45:46.799Z,28.90
2019-04-23T14:48:17.710Z,28.70
2019-04-23T14:50:40.860Z,28.60
2019-04-23T14:53:18.263Z,28.60
2019-04-23T14:58:31.454Z,30.40
2019-04-23T15:01:16.122Z,30.90
2019-04-23T15:03:42.563Z,31.40
2019-04-23T15:06:27.797Z,31.60
2019-04-23T15:08:50.231Z,32.40
2019-04-23T15:11:26.410Z,32.60
2019-04-23T15:13:52.251Z,33.20
2019-04-23T15:16:35.056Z,32.90
2019-04-23T15:19:29.246Z,33.10
2019-04-23T15:24:27.749Z,33.30
2019-04-23T15:29:24.836Z,31.90
2019-04-23T15:32:07.757Z,31.30
2019-04-23T15:34:45.462Z,30.60
2019-04-23T15:37:32.314Z,29.60
2019-04-23T15:39:55.071Z,29.20
2019-04-23T15:42:25.476Z,29.50
2019-04-23T15:44:55.694Z,29.90
2019-04-23T15:50:10.792Z,29.10
2019-04-23T15:57:53.606Z,28.80
2019-04-23T16:00:24.982Z,28.50
2019-04-23T16:02:15.491Z,28.50
2019-04-23T16:04:45.212Z,27.80
2019-04-23T16:07:31.401Z,27.30
2019-04-23T16:10:17.730Z,27.40
2019-04-23T16:12:54.829Z,27.90
2019-04-23T16:15:13.336Z,28.00
2019-04-23T16:18:07.916Z,27.70
2019-04-23T16:20:37.936Z,27.60
2019-04-23T16:22:57.876Z,27.50
2019-04-23T16:25:40.456Z,27.10
2019-04-23T16:28:09.421Z,27.00
2019-04-23T16:30:46.483Z,26.80
2019-04-23T16:33:11.273Z,26.80
2019-04-23T16:35:51.809Z,26.80
2019-04-23T16:38:34.182Z,26.70
2019-04-23T16:40:57.280Z,26.60
2019-04-23T16:43:53.397Z,26.50
2019-04-23T16:46:09.766Z,26.30
2019-04-23T16:51:22.716Z,25.40
2019-04-23T16:53:42.992Z,25.10
2019-04-23T16:59:00.070Z,24.80
2019-04-23T17:01:19.847Z,24.50
2019-04-23T17:03:59.395Z,24.20
2019-04-23T17:06:27.135Z,23.90
2019-04-23T17:08:58.034Z,23.80
2019-04-23T17:11:34.023Z,23.60
2019-04-23T17:14:09.529Z,23.40
2019-04-23T17:16:33.979Z,23.20
2019-04-23T17:19:10.360Z,23.20
2019-04-23T17:21:38.340Z,23.00
2019-04-23T17:24:15.465Z,23.00
2019-04-23T17:26:36.035Z,23.00
2019-04-23T17:29:18.205Z,23.00
2019-04-23T17:31:44.558Z,23.00
2019-04-23T17:34:27.282Z,23.00
2019-04-23T17:37:17.711Z,22.90
2019-04-23T17:40:15.433Z,22.80
2019-04-23T17:43:14.735Z,22.70
2019-04-23T17:45:44.931Z,22.50
2019-04-23T17:48:15.744Z,22.40
2019-04-23T17:50:58.092Z,22.30
2019-04-23T17:53:25.457Z,22.10
2019-04-23T17:56:08.777Z,22.00
2019-04-23T17:58:28.886Z,21.80
2019-04-23T18:01:20.129Z,21.80
2019-04-23T18:03:55.910Z,21.70
2019-04-23T18:06:23.470Z,21.60
2019-04-23T18:08:41.534Z,21.50
2019-04-23T18:11:21.559Z,21.30
2019-04-23T18:13:50.558Z,21.20
2019-04-23T18:16:37.881Z,21.10
2019-04-23T18:21:47.660Z,21.00
2019-04-23T18:24:41.542Z,20.90
2019-04-23T18:27:15.492Z,20.80
2019-04-23T18:30:15.629Z,20.80
2019-04-23T18:38:13.458Z,20.60
2019-04-23T18:41:00.842Z,20.50
2019-04-23T18:43:24.042Z,20.50
2019-04-23T18:45:53.181Z,20.40
2019-04-23T18:53:48.183Z,20.30
2019-04-23T19:04:11.273Z,20.10
2019-04-23T19:06:41.130Z,20.00
2019-04-23T19:13:11.069Z,19.90
2019-04-23T19:15:38.107Z,19.80
2019-04-23T19:18:12.660Z,19.80
2019-04-23T19:25:46.771Z,19.70
2019-04-23T19:28:34.555Z,19.70
2019-04-23T19:31:39.672Z,19.70
2019-04-23T19:34:33.817Z,19.70
2019-04-23T19:36:49.196Z,19.70
2019-04-23T19:39:17.620Z,19.60
2019-04-23T19:44:20.093Z,19.60
2019-04-23T19:54:39.199Z,19.50
2019-04-23T19:56:58.186Z,19.40
2019-04-23T19:59:33.071Z,19.40
2019-04-23T20:02:00.198Z,19.30
2019-04-23T20:07:22.753Z,19.30
2019-04-23T20:09:49.747Z,19.30
2019-04-23T20:12:13.291Z,19.30
2019-04-23T20:14:50.487Z,19.20
2019-04-23T20:20:02.877Z,19.10
2019-04-23T20:22:33.928Z,19.10
2019-04-23T20:25:18.856Z,19.10
2019-04-23T20:27:26.730Z,19.00
2019-04-23T20:35:33.472Z,18.90
2019-04-23T20:38:27.633Z,18.80
2019-04-23T20:40:49.066Z,18.80
2019-04-23T20:43:06.933Z,18.80
2019-04-23T20:45:48.130Z,18.60
2019-04-23T20:48:14.221Z,18.60
2019-04-23T20:50:42.499Z,18.60
2019-04-23T20:53:13.463Z,18.50
2019-04-23T20:58:48.186Z,18.50
2019-04-23T21:01:37.208Z,18.50
2019-04-23T21:04:12.457Z,18.40
2019-04-23T21:06:48.749Z,18.40
2019-04-23T21:11:48.283Z,18.40
2019-04-23T21:14:26.757Z,18.30
2019-04-23T21:16:48.408Z,18.30
2019-04-23T21:19:24.189Z,18.40
2019-04-23T21:22:14.122Z,18.40
2019-04-23T21:24:42.883Z,18.40
2019-04-23T21:27:20.436Z,18.30
2019-04-23T21:29:53.609Z,18.30
2019-04-23T21:32:24.889Z,18.30
2019-04-23T21:35:03.928Z,18.30
2019-04-23T21:38:06.005Z,18.30
2019-04-23T21:41:00.163Z,18.50
2019-04-23T21:43:58.903Z,18.30
2019-04-23T21:46:15.348Z,18.30
2019-04-23T21:48:55.854Z,18.20
2019-04-23T21:51:24.477Z,18.20
2019-04-23T21:53:46.309Z,18.20
2019-04-23T21:56:16.752Z,18.30
2019-04-23T21:58:57.621Z,18.20
2019-04-23T22:04:08.899Z,18.20
2019-04-23T22:11:48.297Z,18.20
2019-04-23T22:14:09.985Z,18.20
2019-04-23T22:16:50.472Z,18.20
2019-04-23T22:19:17.034Z,18.20
2019-04-23T22:24:21.536Z,18.20
2019-04-23T22:26:38.190Z,18.10
2019-04-23T22:31:50.679Z,18.10
2019-04-23T22:34:44.842Z,18.10
2019-04-23T22:37:01.450Z,18.10
2019-04-23T22:39:16.309Z,18.10
2019-04-23T22:41:59.793Z,18.00
2019-04-23T22:44:50.935Z,18.00
2019-04-23T22:54:31.882Z,18.00
2019-04-23T22:57:01.245Z,18.00
2019-04-23T22:59:51.433Z,17.90
2019-04-23T23:02:44.382Z,18.00
2019-04-23T23:05:12.203Z,17.90
2019-04-23T23:07:48.883Z,17.90
2019-04-23T23:10:12.979Z,17.90
2019-04-23T23:13:00.032Z,17.90
2019-04-23T23:15:19.134Z,17.90
2019-04-23T23:20:20.886Z,17.90
2019-04-23T23:22:57.337Z,17.90
2019-04-23T23:27:57.408Z,17.90
2019-04-23T23:30:33.853Z,17.80
2019-04-23T23:32:56.776Z,17.80
2019-04-23T23:38:02.562Z,17.70
2019-04-23T23:40:47.200Z,17.70
2019-04-23T23:43:10.133Z,17.70
2019-04-23T23:48:06.556Z,17.70
2019-04-23T23:50:50.291Z,17.60
2019-04-23T23:53:24.925Z,17.60
2019-04-23T23:55:50.862Z,17.60
